Time;durP1;ratioP1;P1;durP2;ratioP2;P2;SDS_P1;SDS_P2;PMS_P1;PMS_P2;Temp;Humidity;BMP_temperature;BMP_pressure;BME280_temperature;BME280_humidity;BME280_pressure;Samples;Min_cycle;Max_cycle;Signal;HPM_P1;HPM_P2
2023/04/12 00:00:39;;;;;;;;;2.33;2.33;;;;;13.65;100.00;99687.53;4991882;28;45500;-84
2023/04/12 00:03:06;;;;;;;;;3.00;3.00;;;;;13.65;100.00;99684.84;4993016;28;45257;-82
2023/04/12 00:05:33;;;;;;;;;2.00;2.00;;;;;13.63;100.00;99673.31;5007359;28;47894;-83
2023/04/12 00:08:01;;;;;;;;;2.67;2.67;;;;;13.66;100.00;99673.28;4925795;28;45450;-83
2023/04/12 00:10:26;;;;;;;;;1.00;1.00;;;;;13.73;100.00;99677.59;5010073;28;45427;-82
2023/04/12 00:12:52;;;;;;;;;7.33;3.67;;;;;13.70;100.00;99664.31;5012359;28;45383;-84
2023/04/12 00:15:17;;;;;;;;;3.33;3.33;;;;;13.71;100.00;99659.84;4928196;28;45517;-83
2023/04/12 00:17:43;;;;;;;;;6.33;4.67;;;;;13.69;100.00;99653.63;4928188;28;45391;-83
2023/04/12 00:20:12;;;;;;;;;2.33;2.00;;;;;13.63;100.00;99643.94;4926337;28;45315;-83
2023/04/12 00:22:41;;;;;;;;;5.00;3.33;;;;;13.83;100.00;99642.72;4992367;28;45188;-83
2023/04/12 00:25:08;;;;;;;;;4.33;3.00;;;;;13.61;100.00;99632.38;4927009;28;45515;-83
2023/04/12 00:27:34;;;;;;;;;3.33;2.00;;;;;13.57;100.00;99619.97;4927407;28;45431;-83
2023/04/12 00:30:02;;;;;;;;;7.00;3.00;;;;;13.72;100.00;99626.88;4927357;28;45427;-84
2023/04/12 00:32:28;;;;;;;;;3.33;3.33;;;;;13.60;100.00;99619.94;5011580;28;45368;-83
2023/04/12 00:34:53;;;;;;;;;4.67;2.67;;;;;13.56;100.00;99599.53;5011655;28;47096;-83
2023/04/12 00:37:18;;;;;;;;;3.67;3.67;;;;;13.63;100.00;99609.19;4930402;28;45853;-83
2023/04/12 00:39:44;;;;;;;;;3.00;3.00;;;;;13.63;100.00;99598.50;5011378;28;44957;-83
2023/04/12 00:45:59;;;;;;;;;8.67;5.00;;;;;13.78;100.00;99574.22;4963779;28;46175;-83
2023/04/12 00:48:26;;;;;;;;;2.67;2.00;;;;;13.68;100.00;99577.97;5011728;28;45555;-83
2023/04/12 00:50:56;;;;;;;;;3.33;2.00;;;;;13.67;100.00;99565.50;4928212;28;44827;-83
2023/04/12 00:53:22;;;;;;;;;2.00;2.00;;;;;13.63;100.00;99555.75;5010682;28;44924;-83
2023/04/12 00:55:49;;;;;;;;;4.67;3.33;;;;;13.80;100.00;99566.19;5011426;28;47529;-84
2023/04/12 00:58:16;;;;;;;;;2.67;2.67;;;;;13.77;100.00;99561.75;4929270;28;45788;-84
2023/04/12 01:00:48;;;;;;;;;2.33;2.33;;;;;13.69;100.00;99558.31;5013663;28;45385;-83
2023/04/12 01:03:26;;;;;;;;;3.00;3.00;;;;;13.67;100.00;99545.91;5013722;28;45528;-84
2023/04/12 01:09:43;;;;;;;;;5.00;5.00;;;;;13.99;100.00;99502.56;4929222;28;45705;-82
2023/04/12 01:12:27;;;;;;;;;2.33;2.33;;;;;14.07;100.00;99505.94;4931078;28;45496;-83
2023/04/12 01:14:58;;;;;;;;;4.00;4.00;;;;;13.89;100.00;99500.97;4931950;28;45320;-83
2023/04/12 01:17:30;;;;;;;;;3.00;3.00;;;;;13.91;100.00;99496.47;4930111;28;45502;-82
2023/04/12 01:19:56;;;;;;;;;5.00;4.00;;;;;13.85;100.00;99501.94;5013447;28;45443;-83
2023/04/12 01:22:28;;;;;;;;;5.33;3.00;;;;;14.06;100.00;99498.84;4931083;28;45414;-82
2023/04/12 01:25:02;;;;;;;;;5.00;4.00;;;;;13.87;100.00;99494.78;4932231;28;45426;-82
2023/04/12 01:27:47;;;;;;;;;2.67;2.67;;;;;13.86;100.00;99487.69;4996192;28;47686;-82
2023/04/12 01:30:15;;;;;;;;;2.00;2.00;;;;;13.83;100.00;99474.38;4930471;28;45399;-82
2023/04/12 01:32:44;;;;;;;;;3.00;3.00;;;;;13.87;100.00;99484.09;4994854;28;45494;-82
2023/04/12 01:35:10;;;;;;;;;3.00;3.00;;;;;13.75;100.00;99448.66;4995624;28;45498;-82
2023/04/12 01:37:36;;;;;;;;;4.33;4.33;;;;;13.79;100.00;99458.41;5029037;28;46250;-82
2023/04/12 01:40:06;;;;;;;;;4.67;2.00;;;;;13.87;100.00;99465.38;5011782;28;45780;-83
2023/04/12 01:42:32;;;;;;;;;3.00;3.00;;;;;13.80;100.00;99449.47;5011653;28;45423;-83
2023/04/12 01:44:57;;;;;;;;;4.33;2.33;;;;;13.85;100.00;99440.47;5029844;28;45392;-83
2023/04/12 01:47:23;;;;;;;;;2.33;2.00;;;;;13.78;100.00;99429.91;5029403;28;45206;-83
2023/04/12 01:49:56;;;;;;;;;2.00;2.00;;;;;13.96;100.00;99422.44;5013039;28;45581;-83
2023/04/12 01:52:27;;;;;;;;;5.00;3.00;;;;;13.91;100.00;99418.97;5014018;28;45487;-83
2023/04/12 01:54:58;;;;;;;;;1.33;1.33;;;;;13.95;100.00;99426.00;5013261;28;44941;-83
2023/04/12 01:57:26;;;;;;;;;2.00;2.00;;;;;13.91;100.00;99418.97;5012892;28;47466;-83
2023/04/12 01:59:55;;;;;;;;;3.33;3.33;;;;;13.91;100.00;99413.63;5030777;28;44964;-83
2023/04/12 02:02:21;;;;;;;;;4.00;3.00;;;;;13.82;100.00;99406.69;5012317;28;44845;-84
2023/04/12 02:04:46;;;;;;;;;2.00;2.00;;;;;13.83;100.00;99410.22;5011665;28;45524;-85
2023/04/12 02:07:14;;;;;;;;;8.00;3.67;;;;;13.91;100.00;99410.94;4994364;28;48164;-84
2023/04/12 02:09:41;;;;;;;;;2.00;2.00;;;;;14.03;100.00;99399.13;4993168;28;45474;-83
2023/04/12 02:12:07;;;;;;;;;3.00;3.00;;;;;13.46;100.00;99394.94;4993184;28;45400;-83
2023/04/12 02:14:33;;;;;;;;;2.67;2.00;;;;;13.57;100.00;99375.13;5012192;28;45483;-83
2023/04/12 02:17:01;;;;;;;;;5.00;2.33;;;;;13.65;100.00;99369.59;5012412;28;45909;-83
2023/04/12 02:19:26;;;;;;;;;2.00;2.00;;;;;13.64;100.00;99370.53;4991471;28;45722;-83
2023/04/12 02:22:42;;;;;;;;;3.00;3.00;;;;;13.89;100.00;99372.69;4993570;28;45432;-82
2023/04/12 02:25:07;;;;;;;;;1.00;1.00;;;;;13.53;100.00;99364.50;5006736;28;45352;-83
2023/04/12 02:27:33;;;;;;;;;1.67;1.67;;;;;13.19;100.00;99357.16;5007188;28;46862;-84
2023/04/12 02:29:58;;;;;;;;;1.33;0.33;;;;;13.12;100.00;99355.50;4991525;28;45559;-83
2023/04/12 02:32:23;;;;;;;;;1.00;1.00;;;;;13.17;100.00;99345.63;4990751;28;45419;-83
2023/04/12 02:38:11;;;;;;;;;2.33;2.33;;;;;13.22;100.00;99333.06;5008839;28;45285;-83
2023/04/12 02:40:40;;;;;;;;;2.33;1.67;;;;;13.30;100.00;99328.47;4991845;28;45150;-83
2023/04/12 02:43:06;;;;;;;;;2.00;2.00;;;;;13.24;100.00;99335.69;4993920;28;45460;-83
2023/04/12 02:45:32;;;;;;;;;1.00;1.00;;;;;13.61;100.00;99325.16;5008481;28;45793;-83
2023/04/12 02:47:57;;;;;;;;;0.33;0.00;;;;;13.89;100.00;99324.59;5008097;28;46078;-83
2023/04/12 02:50:23;;;;;;;;;1.00;1.00;;;;;13.85;100.00;99320.22;5009726;28;45401;-82
2023/04/12 02:52:48;;;;;;;;;2.00;2.00;;;;;14.00;100.00;99325.22;5008073;28;45432;-83
2023/04/12 02:55:14;;;;;;;;;0.67;0.67;;;;;13.95;100.00;99321.78;4991726;28;45478;-84
2023/04/12 02:57:40;;;;;;;;;1.00;1.00;;;;;14.00;100.00;99328.78;5010165;28;45042;-82
2023/04/12 03:00:10;;;;;;;;;0.33;0.33;;;;;14.11;100.00;99336.53;4991480;28;45394;-83
2023/04/12 03:02:36;;;;;;;;;2.00;0.67;;;;;14.13;100.00;99336.50;5007748;28;45434;-83
2023/04/12 03:05:03;;;;;;;;;1.00;1.00;;;;;14.16;100.00;99350.69;4988855;28;45482;-82
2023/04/12 03:07:29;;;;;;;;;0.67;0.67;;;;;14.26;100.00;99361.16;5008054;28;45411;-83
2023/04/12 03:09:55;;;;;;;;;1.00;1.00;;;;;14.27;100.00;99363.81;4988856;28;45499;-82
2023/04/12 03:12:20;;;;;;;;;0.00;0.00;;;;;14.14;100.00;99365.91;4993163;28;45455;-83
2023/04/12 03:14:46;;;;;;;;;3.00;2.00;;;;;13.83;100.00;99389.72;4928862;28;45300;-82
2023/04/12 03:17:11;;;;;;;;;0.00;0.00;;;;;13.21;100.00;99379.34;5011300;28;47587;-83
2023/04/12 03:19:38;;;;;;;;;0.00;0.00;;;;;13.09;100.00;99368.88;4995770;28;45773;-84
2023/04/12 03:22:04;;;;;;;;;0.00;0.00;;;;;13.13;100.00;99358.13;4996849;28;45544;-84
2023/04/12 03:24:33;;;;;;;;;0.00;0.00;;;;;13.14;100.00;99362.56;4996143;28;45462;-83
2023/04/12 03:27:03;;;;;;;;;0.00;0.00;;;;;13.32;100.00;99347.13;4927181;28;46209;-82
2023/04/12 03:29:29;;;;;;;;;0.00;0.00;;;;;13.07;100.00;99339.56;4940054;28;45597;-83
2023/04/12 03:31:57;;;;;;;;;0.00;0.00;;;;;13.00;100.00;99344.13;4927433;28;45692;-83
2023/04/12 03:34:23;;;;;;;;;0.00;0.00;;;;;12.99;100.00;99347.72;4926621;28;45527;-83
2023/04/12 03:36:49;;;;;;;;;1.00;0.00;;;;;12.97;100.00;99349.53;4991364;28;47736;-83
2023/04/12 03:39:15;;;;;;;;;0.00;0.00;;;;;12.93;100.00;99337.16;4992787;28;45599;-83
2023/04/12 03:41:41;;;;;;;;;0.00;0.00;;;;;12.96;100.00;99342.41;4994482;28;45313;-83
2023/04/12 03:47:34;;;;;;;;;0.00;0.00;;;;;13.02;100.00;99347.63;5022175;28;46250;-82
2023/04/12 03:50:05;;;;;;;;;0.00;0.00;;;;;12.98;100.00;99335.25;5026411;28;45506;-82
2023/04/12 03:52:31;;;;;;;;;0.00;0.00;;;;;12.87;100.00;99329.25;5009787;28;45423;-82
2023/04/12 03:54:57;;;;;;;;;0.00;0.00;;;;;12.68;100.00;99330.47;5027728;28;45479;-82
2023/04/12 03:57:23;;;;;;;;;0.00;0.00;;;;;12.74;100.00;99325.03;5025597;28;45940;-82
2023/04/12 03:59:50;;;;;;;;;0.67;0.00;;;;;12.63;100.00;99324.38;5027660;28;45798;-82
2023/04/12 04:02:15;;;;;;;;;0.00;0.00;;;;;12.64;100.00;99318.97;5011050;28;45531;-82
2023/04/12 04:04:41;;;;;;;;;0.00;0.00;;;;;12.65;100.00;99327.88;5010371;28;45347;-82
2023/04/12 04:07:07;;;;;;;;;0.00;0.00;;;;;12.67;100.00;99328.72;5027805;28;45377;-82
2023/04/12 04:09:33;;;;;;;;;0.00;0.00;;;;;12.73;100.00;99328.63;5027937;28;45497;-82
2023/04/12 04:11:58;;;;;;;;;0.00;0.00;;;;;12.57;100.00;99336.88;5009379;28;44775;-81
2023/04/12 04:14:24;;;;;;;;;0.00;0.00;;;;;12.59;100.00;99329.72;5027004;28;45685;-83
2023/04/12 04:16:50;;;;;;;;;0.00;0.00;;;;;12.66;100.00;99326.97;5027561;28;45934;-83
2023/04/12 04:19:16;;;;;;;;;0.00;0.00;;;;;12.60;100.00;99323.50;5010647;28;45360;-83
2023/04/12 04:21:41;;;;;;;;;0.00;0.00;;;;;12.65;100.00;99319.88;5025983;28;45896;-82
2023/04/12 04:24:10;;;;;;;;;0.00;0.00;;;;;12.78;100.00;99321.41;5027056;28;45460;-83
2023/04/12 04:26:37;;;;;;;;;0.00;0.00;;;;;12.66;100.00;99321.63;5011069;28;48196;-82
2023/04/12 04:29:03;;;;;;;;;0.00;0.00;;;;;12.59;100.00;99323.53;5027351;28;45491;-82
2023/04/12 04:31:33;;;;;;;;;0.00;0.00;;;;;12.56;100.00;99316.47;5009934;28;45854;-81
2023/04/12 04:34:05;;;;;;;;;0.00;0.00;;;;;12.73;100.00;99307.28;5025781;28;45383;-81
2023/04/12 04:36:33;;;;;;;;;0.00;0.00;;;;;12.71;100.00;99319.78;5026394;28;45396;-81
2023/04/12 04:39:00;;;;;;;;;0.00;0.00;;;;;12.62;100.00;99326.13;5008776;28;45869;-82
2023/04/12 04:41:26;;;;;;;;;0.00;0.00;;;;;12.72;100.00;99319.72;5008858;28;45474;-82
2023/04/12 04:43:53;;;;;;;;;0.00;0.00;;;;;12.58;100.00;99314.66;5025591;28;45642;-82
2023/04/12 04:46:22;;;;;;;;;0.00;0.00;;;;;12.64;100.00;99308.31;4984884;28;46179;-82
2023/04/12 04:48:50;;;;;;;;;0.00;0.00;;;;;12.60;100.00;99298.59;4925859;28;44821;-82
2023/04/12 04:51:16;;;;;;;;;0.00;0.00;;;;;12.58;100.00;99295.97;5007172;28;45482;-82
2023/04/12 04:53:42;;;;;;;;;0.00;0.00;;;;;12.57;100.00;99306.66;5007491;28;45565;-81
2023/04/12 04:56:10;;;;;;;;;0.00;0.00;;;;;12.55;100.00;99311.16;4990366;28;47114;-80
2023/04/12 04:58:36;;;;;;;;;0.00;0.00;;;;;12.53;100.00;99294.28;4924580;28;45400;-80
2023/04/12 05:01:02;;;;;;;;;0.00;0.00;;;;;12.56;100.00;99294.22;5006196;28;44798;-81
2023/04/12 05:03:28;;;;;;;;;0.00;0.00;;;;;12.52;100.00;99297.84;5024475;28;45398;-81
2023/04/12 05:05:57;;;;;;;;;0.00;0.00;;;;;12.57;100.00;99325.34;5007327;28;47129;-82
2023/04/12 05:08:22;;;;;;;;;1.67;0.00;;;;;12.53;100.00;99328.97;5027531;28;45535;-82
2023/04/12 05:10:52;;;;;;;;;1.00;1.00;;;;;12.65;100.00;99346.56;5029163;28;45485;-82
2023/04/12 05:13:17;;;;;;;;;0.00;0.00;;;;;12.16;100.00;99343.75;5031225;28;45404;-82
2023/04/12 05:15:43;;;;;;;;;1.00;1.00;;;;;12.02;100.00;99348.41;5013463;28;47193;-82
2023/04/12 05:18:08;;;;;;;;;2.00;2.00;;;;;11.95;100.00;99355.59;5030130;28;45674;-83
2023/04/12 05:20:37;;;;;;;;;2.00;1.00;;;;;11.90;100.00;99351.25;5029980;28;45470;-81
2023/04/12 05:23:02;;;;;;;;;2.33;2.33;;;;;11.65;100.00;99346.19;5030434;28;45470;-81
2023/04/12 05:25:28;;;;;;;;;0.00;0.00;;;;;11.45;100.00;99366.84;5029708;28;46237;-82
2023/04/12 05:27:54;;;;;;;;;1.00;1.00;;;;;11.26;100.00;99364.41;5010809;28;45424;-81
2023/04/12 05:30:19;;;;;;;;;1.00;1.00;;;;;11.10;100.00;99394.72;5029648;28;45414;-81
2023/04/12 05:32:44;;;;;;;;;1.33;0.67;;;;;10.96;100.00;99389.53;5031480;28;45397;-82
2023/04/12 05:35:10;;;;;;;;;1.00;1.00;;;;;10.82;100.00;99389.66;5030338;28;45491;-81
2023/04/12 05:37:35;;;;;;;;;2.33;2.33;;;;;10.81;100.00;99390.56;5012876;28;45401;-81
2023/04/12 05:40:05;;;;;;;;;2.00;2.00;;;;;10.94;100.00;99405.50;5012065;28;45743;-80
2023/04/12 05:42:30;;;;;;;;;1.67;1.00;;;;;10.78;100.00;99403.88;5010822;28;45499;-81
2023/04/12 05:44:55;;;;;;;;;1.67;1.67;;;;;10.75;100.00;99411.88;5011293;28;47042;-81
2023/04/12 05:47:21;;;;;;;;;1.00;1.00;;;;;10.67;100.00;99405.75;5028880;28;45726;-81
2023/04/12 05:49:46;;;;;;;;;1.67;1.00;;;;;10.46;100.00;99406.78;5028997;28;45505;-81
2023/04/12 05:52:12;;;;;;;;;1.00;1.00;;;;;10.38;100.00;99417.44;5013483;28;45839;-83
2023/04/12 05:54:37;;;;;;;;;4.00;2.33;;;;;10.29;100.00;99409.53;5031498;28;45453;-83
2023/04/12 05:57:09;;;;;;;;;1.33;1.33;;;;;10.23;100.00;99420.19;5011934;28;45435;-81
2023/04/12 05:59:35;;;;;;;;;2.33;2.00;;;;;10.19;100.00;99436.13;5012841;28;45443;-81
2023/04/12 06:02:00;;;;;;;;;2.00;2.00;;;;;10.11;100.00;99414.03;4999731;28;45583;-83
2023/04/12 06:04:26;;;;;;;;;3.00;3.00;;;;;10.16;100.00;99425.53;5013079;28;47013;-82
2023/04/12 06:06:53;;;;;;;;;3.00;3.00;;;;;10.29;100.00;99409.53;5013477;28;45360;-82
2023/04/12 06:09:25;;;;;;;;;3.00;3.00;;;;;10.54;100.00;99399.63;5032810;28;44810;-82
2023/04/12 06:11:52;;;;;;;;;3.00;3.00;;;;;10.57;100.00;99410.25;5011349;28;45460;-83
2023/04/12 06:14:21;;;;;;;;;3.33;3.33;;;;;10.73;100.00;99400.38;5023776;28;46848;-81
2023/04/12 06:16:49;;;;;;;;;3.00;2.00;;;;;10.83;100.00;99407.38;5022939;28;45421;-83
2023/04/12 06:19:15;;;;;;;;;4.00;3.00;;;;;10.81;100.00;99425.13;5011661;28;45860;-82
2023/04/12 06:21:44;;;;;;;;;1.00;1.00;;;;;10.95;100.00;99423.25;5029257;28;45406;-82
2023/04/12 06:24:09;;;;;;;;;5.00;3.00;;;;;10.97;100.00;99416.13;5012295;28;46999;-82
2023/04/12 06:26:36;;;;;;;;;2.00;2.00;;;;;11.10;100.00;99410.69;5028614;28;45569;-82
2023/04/12 06:29:01;;;;;;;;;3.00;3.00;;;;;11.18;100.00;99424.81;5024937;28;44829;-84
2023/04/12 06:31:27;;;;;;;;;0.00;0.00;;;;;11.26;100.00;99433.59;5010456;28;45388;-82
2023/04/12 06:33:52;;;;;;;;;2.00;2.00;;;;;11.39;100.00;99419.28;5011075;28;45333;-81
2023/04/12 06:36:27;;;;;;;;;2.00;2.00;;;;;11.66;100.00;99406.53;5011109;28;45369;-82
2023/04/12 06:38:53;;;;;;;;;4.67;2.33;;;;;11.57;100.00;99402.22;5024651;28;45216;-80
2023/04/12 06:41:20;;;;;;;;;3.00;2.00;;;;;11.69;100.00;99408.28;5029521;28;44873;-84
2023/04/12 06:43:46;;;;;;;;;2.67;2.00;;;;;11.75;100.00;99405.53;5029566;28;46471;-83
2023/04/12 06:46:14;;;;;;;;;1.00;1.00;;;;;11.79;100.00;99428.56;5011726;28;45446;-82
2023/04/12 06:48:40;;;;;;;;;1.67;1.67;;;;;11.71;100.00;99426.00;5029044;28;45269;-83
2023/04/12 06:51:07;;;;;;;;;2.00;1.00;;;;;11.75;100.00;99438.38;5012741;28;44842;-82
2023/04/12 06:53:33;;;;;;;;;3.00;3.00;;;;;11.75;100.00;99435.72;5029685;28;47054;-83
2023/04/12 06:56:03;;;;;;;;;2.67;2.00;;;;;11.82;100.00;99432.09;5013755;28;45947;-83
2023/04/12 06:58:30;;;;;;;;;2.33;1.00;;;;;11.74;100.00;99425.97;5030304;28;45387;-83
2023/04/12 07:01:14;;;;;;;;;1.67;1.67;;;;;11.99;100.00;99415.03;5013534;28;45332;-83
2023/04/12 07:03:39;;;;;;;;;1.00;1.00;;;;;11.94;100.00;99411.56;5029729;28;46456;-84
2023/04/12 07:06:05;;;;;;;;;1.00;1.00;;;;;11.99;100.00;99405.25;5009387;28;45315;-83
2023/04/12 07:08:33;;;;;;;;;1.00;0.00;;;;;12.09;100.00;99400.69;5010572;28;45442;-83
2023/04/12 07:10:58;;;;;;;;;0.00;0.00;;;;;12.05;100.00;99390.97;5014109;28;44858;-82
2023/04/12 07:13:24;;;;;;;;;1.00;0.00;;;;;12.01;100.00;99399.91;5009651;28;45782;-81
2023/04/12 07:15:52;;;;;;;;;1.00;1.00;;;;;12.02;100.00;99401.69;5008008;28;45879;-82
2023/04/12 07:18:17;;;;;;;;;3.00;1.67;;;;;12.01;100.00;99403.47;4992902;28;45289;-81
2023/04/12 07:20:47;;;;;;;;;2.00;1.00;;;;;12.18;100.00;99400.59;5006193;28;45420;-82
2023/04/12 07:23:14;;;;;;;;;2.00;1.00;;;;;12.10;100.00;99396.25;5008156;28;45506;-83
2023/04/12 07:25:40;;;;;;;;;1.00;1.00;;;;;12.15;100.00;99389.94;4993807;28;45769;-83
2023/04/12 07:31:29;;;;;;;;;2.00;2.00;;;;;12.46;100.00;99384.16;5023112;28;45388;-84
2023/04/12 07:33:56;;;;;;;;;1.00;1.00;;;;;12.63;100.00;99391.03;5034863;28;45512;-83
2023/04/12 07:36:26;;;;;;;;;2.00;2.00;;;;;12.80;100.00;99384.53;5028016;28;45349;-82
2023/04/12 07:38:54;;;;;;;;;1.67;0.00;;;;;12.79;100.00;99388.09;5031813;28;45663;-83
2023/04/12 07:41:30;;;;;;;;;1.00;1.00;;;;;13.09;100.00;99396.47;5033613;28;45649;-83
2023/04/12 07:43:58;;;;;;;;;0.33;0.33;;;;;13.06;100.00;99369.81;5029151;28;47152;-84
2023/04/12 07:46:33;;;;;;;;;3.00;1.33;;;;;13.04;100.00;99358.28;5035830;28;44813;-82
2023/04/12 07:48:59;;;;;;;;;1.00;1.00;;;;;13.01;100.00;99374.38;5014779;28;45457;-82
2023/04/12 07:51:28;;;;;;;;;0.33;0.33;;;;;13.18;100.00;99358.91;5032778;28;45523;-81
2023/04/12 08:03:38;;;;;;;;;1.00;1.00;;;;;13.64;100.00;99399.91;5019667;22;45252;-83
2023/04/12 08:06:04;;;;;;;;;3.00;2.00;;;;;13.61;100.00;99402.63;4954240;28;45344;-82
2023/04/12 08:08:32;;;;;;;;;3.33;3.33;;;;;13.63;100.00;99399.94;4968551;28;44870;-83
2023/04/12 08:11:02;;;;;;;;;2.00;1.00;;;;;13.76;100.00;99423.72;4952003;28;45332;-83
2023/04/12 08:13:27;;;;;;;;;1.00;1.00;;;;;13.62;100.00;99431.13;4970104;28;45352;-83
2023/04/12 08:15:58;;;;;;;;;3.00;2.00;;;;;13.70;100.00;99429.19;4967810;28;46290;-83
2023/04/12 08:18:25;;;;;;;;;0.00;0.00;;;;;13.56;100.00;99428.56;4966807;28;45540;-82
2023/04/12 08:20:52;;;;;;;;;3.00;1.00;;;;;13.45;100.00;99419.88;4970722;28;44824;-84
2023/04/12 08:23:17;;;;;;;;;2.33;1.00;;;;;13.59;100.00;99436.50;5039903;28;45558;-84
2023/04/12 08:25:46;;;;;;;;;1.67;1.67;;;;;13.83;100.00;99453.00;4954702;28;46959;-84
2023/04/12 08:28:12;;;;;;;;;1.00;1.00;;;;;13.70;100.00;99447.88;4968849;28;45497;-83
2023/04/12 08:30:52;;;;;;;;;0.00;0.00;;;;;13.68;100.00;99444.38;5015535;28;44964;-83
2023/04/12 08:33:17;;;;;;;;;0.00;0.00;;;;;13.54;100.00;99430.41;5012984;28;45601;-84
2023/04/12 08:35:43;;;;;;;;;1.00;0.00;;;;;13.37;100.00;99410.25;4994705;28;46410;-83
2023/04/12 08:41:38;;;;;;;;;0.00;0.00;;;;;13.55;100.00;99454.41;4944523;28;46193;-84
2023/04/12 08:44:04;;;;;;;;;1.00;1.00;;;;;13.47;100.00;99448.34;4950668;28;45449;-83
2023/04/12 08:46:41;;;;;;;;;1.00;1.00;;;;;13.65;100.00;99449.75;4999998;28;47376;-83
2023/04/12 08:49:10;;;;;;;;;0.00;0.00;;;;;13.71;100.00;99459.44;5036716;28;45486;-83
2023/04/12 08:51:46;;;;;;;;;1.33;1.00;;;;;13.98;100.00;99440.19;5038836;28;45394;-83
2023/04/12 08:54:17;;;;;;;;;1.00;1.00;;;;;13.70;100.00;99458.56;5035944;28;45565;-83
2023/04/12 08:56:52;;;;;;;;;0.00;0.00;;;;;13.47;100.00;99452.78;5020661;28;46990;-82
2023/04/12 08:59:19;;;;;;;;;2.33;1.00;;;;;13.52;100.00;99464.28;4947168;28;45459;-83
2023/04/12 09:01:45;;;;;;;;;0.33;0.33;;;;;13.50;100.00;99458.94;5021368;28;45353;-83
2023/04/12 09:04:31;;;;;;;;;1.00;0.00;;;;;13.50;100.00;99472.31;4958989;28;45375;-83
2023/04/12 09:07:01;;;;;;;;;0.00;0.00;;;;;13.62;100.00;99449.81;5017664;28;47366;-84
2023/04/12 09:09:48;;;;;;;;;4.67;3.00;;;;;13.77;100.00;99476.22;5018637;28;45377;-83
2023/04/12 09:15:46;;;;;;;;;0.00;0.00;;;;;13.56;100.00;99465.97;5020182;28;45478;-84
2023/04/12 09:18:12;;;;;;;;;0.00;0.00;;;;;13.49;100.00;99477.66;5026157;28;47012;-86
2023/04/12 09:20:38;;;;;;;;;0.00;0.00;;;;;13.46;100.00;99446.56;5018149;28;45697;-82
2023/04/12 09:23:26;;;;;;;;;0.00;0.00;;;;;13.87;100.00;99484.09;5018910;28;45481;-84
2023/04/12 09:25:52;;;;;;;;;1.33;1.33;;;;;13.94;100.00;99477.72;5034552;28;44876;-82
2023/04/12 09:28:21;;;;;;;;;1.00;1.00;;;;;14.24;100.00;99472.63;5016921;28;47061;-82
2023/04/12 09:30:50;;;;;;;;;1.00;1.00;;;;;14.35;100.00;99479.50;5033898;28;45356;-83
2023/04/12 09:33:20;;;;;;;;;0.00;0.00;;;;;14.42;100.00;99474.91;5016536;28;45426;-82
2023/04/12 09:36:00;;;;;;;;;0.00;0.00;;;;;14.43;100.00;99474.00;5017111;28;45241;-84
2023/04/12 09:38:41;;;;;;;;;0.00;0.00;;;;;14.40;100.00;99484.75;5024268;28;45399;-87
2023/04/12 09:41:29;;;;;;;;;1.33;0.00;;;;;14.41;100.00;99467.81;5016858;28;45331;-86
2023/04/12 09:43:54;;;;;;;;;1.00;1.00;;;;;14.55;100.00;99481.75;5036488;28;45512;-82
2023/04/12 09:46:24;;;;;;;;;0.00;0.00;;;;;14.93;100.00;99482.72;5032513;28;45456;-84
2023/04/12 09:48:58;;;;;;;;;1.67;1.00;;;;;15.39;100.00;99478.88;5029193;28;45488;-83
2023/04/12 09:51:37;;;;;;;;;0.00;0.00;;;;;15.58;100.00;99479.25;5016627;28;45421;-82
2023/04/12 09:54:23;;;;;;;;;0.67;0.67;;;;;15.68;100.00;99481.72;5027370;28;44790;-82
2023/04/12 09:56:56;;;;;;;;;1.00;0.00;;;;;15.68;100.00;99477.22;5016457;28;44884;-84
2023/04/12 09:59:29;;;;;;;;;0.00;0.00;;;;;15.56;100.00;99485.59;5055563;28;45946;-84
2023/04/12 10:01:56;;;;;;;;;1.00;1.00;;;;;15.36;100.00;99486.13;5004470;28;45661;-84
2023/04/12 10:04:22;;;;;;;;;1.00;1.00;;;;;15.35;100.00;99490.59;5029960;28;45549;-83
2023/04/12 10:06:52;;;;;;;;;2.67;1.00;;;;;15.28;100.00;99488.97;5019778;28;45504;-83
2023/04/12 10:09:18;;;;;;;;;2.67;2.67;;;;;15.16;100.00;99495.53;5045089;28;45502;-84
2023/04/12 10:11:50;;;;;;;;;2.00;0.00;;;;;15.28;100.00;99488.97;5036376;28;44896;-83
2023/04/12 10:14:30;;;;;;;;;0.00;0.00;;;;;15.42;100.00;99485.09;5020380;28;44703;-85
2023/04/12 10:17:28;;;;;;;;;0.00;0.00;;;;;15.59;100.00;99483.72;5043653;28;44831;-83
2023/04/12 10:20:08;;;;;;;;;1.00;1.00;;;;;15.67;100.00;99483.50;5007759;28;45742;-82
2023/04/12 10:22:47;;;;;;;;;0.00;0.00;;;;;15.70;100.00;99464.66;5033071;28;44882;-82
2023/04/12 10:26:03;;;;;;;;;;;;;;;;;;;;;
2023/04/12 10:28:40;;;;;;;;;1.00;0.67;;;;;16.12;100.00;99472.47;5040367;28;65009;-83
2023/04/12 10:31:52;;;;;;;;;0.00;0.00;;;;;16.29;100.00;99469.25;5030752;28;46544;-83
2023/04/12 10:35:06;;;;;;;;;;;;;;;;;;;;;
2023/04/12 10:38:00;;;;;;;;;1.33;1.00;;;;;16.89;100.00;99477.31;4946982;28;68031;-83
2023/04/12 10:40:57;;;;;;;;;0.00;0.00;;;;;16.78;100.00;99477.63;4962042;28;44855;-83
2023/04/12 10:43:52;;;;;;;;;2.00;1.00;;;;;16.94;100.00;99478.03;4942443;28;45241;-84
2023/04/12 10:46:39;;;;;;;;;0.00;0.00;;;;;16.95;100.00;99475.31;4935335;28;45725;-84
2023/04/12 10:49:14;;;;;;;;;0.33;0.33;;;;;16.90;100.00;99485.31;4939681;28;44786;-82
2023/04/12 10:52:10;;;;;;;;;2.00;1.00;;;;;16.97;100.00;99488.69;4931878;28;45326;-83
2023/04/12 10:55:31;;;;;;;;;1.67;0.00;;;;;16.90;100.00;99503.25;4951337;28;47136;-84
2023/04/12 10:58:11;;;;;;;;;2.00;1.00;;;;;16.78;100.00;99480.31;5473322;22;46775;-84
2023/04/12 11:01:30;;;;;;;;;1.33;1.33;;;;;17.05;100.00;99486.63;4973238;28;44793;-84
2023/04/12 11:04:34;;;;;;;;;;;;;;;;;;;;;
2023/04/12 11:07:12;;;;;;;;;1.00;1.00;;;;;16.91;100.00;99480.84;5015072;28;74904;-85
2023/04/12 11:10:07;;;;;;;;;1.33;0.33;;;;;16.50;100.00;99483.88;4972551;28;45492;-83
2023/04/12 11:25:24;;;;;;;;;0.33;0.33;;;;;16.20;100.00;99482.97;5004763;22;45395;-84
2023/04/12 11:27:58;;;;;;;;;0.00;0.00;;;;;16.07;100.00;99444.00;4957605;28;45970;-84
2023/04/12 11:30:37;;;;;;;;;0.33;0.33;;;;;16.24;100.00;99459.59;4953631;28;46256;-85
2023/04/12 11:33:40;;;;;;;;;0.67;0.67;;;;;16.54;100.00;99484.63;4954878;28;45392;-87
2023/04/12 11:36:26;;;;;;;;;0.67;0.67;;;;;16.57;100.00;99473.81;4953772;28;45661;-87
2023/04/12 11:38:54;;;;;;;;;0.00;0.00;;;;;16.69;100.00;99491.34;4936023;28;45634;-87
2023/04/12 11:41:20;;;;;;;;;2.00;0.67;;;;;16.66;100.00;99488.75;4951882;28;47414;-87
2023/04/12 11:43:49;;;;;;;;;0.67;0.67;;;;;16.65;100.00;99485.19;4953572;28;45347;-86
2023/04/12 11:46:38;;;;;;;;;0.67;0.00;;;;;16.39;100.00;99449.28;4960320;28;45419;-87
2023/04/12 11:49:23;;;;;;;;;0.00;0.00;;;;;16.36;100.00;99464.59;4936435;28;45479;-86
2023/04/12 11:52:26;;;;;;;;;0.67;0.67;;;;;16.13;100.00;99431.28;4953755;28;48644;-87
2023/04/12 11:54:55;;;;;;;;;0.67;0.00;;;;;16.11;100.00;99451.03;4935728;28;46229;-89
2023/04/12 12:05:55;;;;;;;;;0.00;0.00;;;;;16.22;100.00;99462.34;5013811;22;45545;-84
2023/04/12 12:08:24;;;;;;;;;0.00;0.00;;;;;16.12;100.00;99428.66;4963516;28;45401;-83
2023/04/12 12:10:50;;;;;;;;;1.00;1.00;;;;;16.25;100.00;99456.88;4957787;28;45840;-83
2023/04/12 12:16:00;;;;;;;;;0.00;0.00;;;;;16.55;100.00;99443.44;3039759;26;45946;-83
2023/04/12 12:18:27;;;;;;;;;0.00;0.00;;;;;16.49;100.00;99441.81;4979483;28;44748;-83
2023/04/12 12:20:54;;;;;;;;;1.00;1.00;;;;;16.81;100.00;99461.47;4997220;28;45309;-83
2023/04/12 12:23:55;;;;;;;;;0.33;0.33;;;;;17.18;100.00;99428.88;4981188;28;47118;-84
2023/04/12 12:26:30;;;;;;;;;0.33;0.33;;;;;17.48;100.00;99438.63;4995774;28;45411;-84
2023/04/12 12:28:59;;;;;;;;;1.00;0.00;;;;;17.49;100.00;99448.44;5002434;28;45408;-84
2023/04/12 12:31:32;;;;;;;;;0.33;0.00;;;;;17.45;100.00;99420.81;4993754;28;44816;-83
2023/04/12 12:34:00;;;;;;;;;1.00;1.00;;;;;17.46;100.00;99427.06;4993488;28;45392;-82
2023/04/12 12:36:55;;;;;;;;;1.50;1.00;;;;;17.51;100.00;99425.06;4994081;28;45502;-84
2023/04/12 12:39:23;;;;;;;;;0.00;0.00;;;;;17.42;100.00;99428.09;4984645;28;45555;-84
2023/04/12 12:41:55;;;;;;;;;0.00;0.00;;;;;17.63;100.00;99446.13;4979935;28;45357;-83
2023/04/12 12:44:24;;;;;;;;;0.00;0.00;;;;;17.75;100.00;99451.09;5002461;28;45502;-85